首页
METAR-TAF:

METAR-TAF

机场 :

爱德华·劳伦斯·洛根将军国际机场

波士顿, 马萨诸塞州, 美国

纬度: 42-21-38N, 经度: 071-00-38W, 海拔: 6米

当前天气观测

该预报发布于24分钟前的08:54 UTC
风速9节,风向北转西北
温度 8°C
湿度 53%
气压 1023 hPa
能見度: 16.1公里
天空无云

METAR: KBOS 190854Z 34009KT 10SM CLR 08/M01 A3021 RMK AO2 SLP228 T00831011 53015

时间: 05:18 (09:18 UTC)

预报

该预报发布于3小时和40分钟前的05:38 UTC
预报有效从19日的 06点(UTC)到 20日的 12点(UTC)
风速13节,风向,有时为23节阵风
能見度: 10公里
天空无云
从 19日的 1900点(UTC)
风速10节,风向北转东北
能見度: 10公里
天空无云
从 20日的 0300点(UTC)
风速9节,风向
能見度: 10公里
天空无云

TAF: KBOS 190538Z 1906/2012 35013G23KT P6SM SKC FM191900 03010KT P6SM SKC FM200300 36009KT P6SM SKC

超过4000个机场的气象观测和天气预报(METAR&TAF报告)。

可查询的气象台以黄色和红色小点在地图上表示。

将鼠标移到小点上方,可查看气象台名称。

然后点击查看天气观测和预报。

如需切换地图:点击带黑十字的绿色按钮放大地图;点击带横线的绿色按钮缩小地图;或者点击绿色箭头查看邻近地区的地图。


METAR-TAF: